sensor_id;sensor_type;location;lat;lon;timestamp;temperature;humidity
49465;DHT22;35358;49.342;8.802;2022-10-30T00:00:47;13.10;99.90
49465;DHT22;35358;49.342;8.802;2022-10-30T00:03:14;13.00;99.90
49465;DHT22;35358;49.342;8.802;2022-10-30T00:05:45;13.00;99.90
49465;DHT22;35358;49.342;8.802;2022-10-30T00:08:12;13.00;99.90
49465;DHT22;35358;49.342;8.802;2022-10-30T00:10:42;13.10;99.90
49465;DHT22;35358;49.342;8.802;2022-10-30T00:13:10;13.00;99.90
49465;DHT22;35358;49.342;8.802;2022-10-30T00:15:37;13.00;99.90
49465;DHT22;35358;49.342;8.802;2022-10-30T00:18:03;12.90;99.90
49465;DHT22;35358;49.342;8.802;2022-10-30T00:20:34;13.00;99.90
49465;DHT22;35358;49.342;8.802;2022-10-30T00:23:02;13.00;99.90
49465;DHT22;35358;49.342;8.802;2022-10-30T00:25:28;13.00;99.90
49465;DHT22;35358;49.342;8.802;2022-10-30T00:27:55;13.00;99.90
49465;DHT22;35358;49.342;8.802;2022-10-30T00:30:26;13.00;99.90
49465;DHT22;35358;49.342;8.802;2022-10-30T00:32:51;13.00;99.90
49465;DHT22;35358;49.342;8.802;2022-10-30T00:35:19;12.80;99.90
49465;DHT22;35358;49.342;8.802;2022-10-30T00:37:45;12.80;99.90
49465;DHT22;35358;49.342;8.802;2022-10-30T00:40:14;12.80;99.90
49465;DHT22;35358;49.342;8.802;2022-10-30T00:42:43;12.80;99.90
49465;DHT22;35358;49.342;8.802;2022-10-30T00:45:12;12.90;99.90
49465;DHT22;35358;49.342;8.802;2022-10-30T00:47:45;12.80;99.90
49465;DHT22;35358;49.342;8.802;2022-10-30T00:50:25;12.80;99.90
49465;DHT22;35358;49.342;8.802;2022-10-30T00:53:13;12.80;99.90
49465;DHT22;35358;49.342;8.802;2022-10-30T00:55:50;12.70;99.90
49465;DHT22;35358;49.342;8.802;2022-10-30T00:58:19;12.80;99.90
49465;DHT22;35358;49.342;8.802;2022-10-30T01:00:52;12.80;99.90
49465;DHT22;35358;49.342;8.802;2022-10-30T01:03:20;12.80;99.90
49465;DHT22;35358;49.342;8.802;2022-10-30T01:05:50;12.80;99.90
49465;DHT22;35358;49.342;8.802;2022-10-30T01:08:17;12.80;99.90
49465;DHT22;35358;49.342;8.802;2022-10-30T01:10:43;12.70;99.90
49465;DHT22;35358;49.342;8.802;2022-10-30T01:13:11;12.80;99.90
49465;DHT22;35358;49.342;8.802;2022-10-30T01:15:40;12.70;99.90
49465;DHT22;35358;49.342;8.802;2022-10-30T01:18:20;12.70;99.90
49465;DHT22;35358;49.342;8.802;2022-10-30T01:23:45;12.70;99.90
49465;DHT22;35358;49.342;8.802;2022-10-30T01:26:25;12.70;99.90
49465;DHT22;35358;49.342;8.802;2022-10-30T01:29:02;12.70;99.90
49465;DHT22;35358;49.342;8.802;2022-10-30T01:31:47;12.70;99.90
49465;DHT22;35358;49.342;8.802;2022-10-30T01:34:19;12.70;99.90
49465;DHT22;35358;49.342;8.802;2022-10-30T01:37:05;12.70;99.90
49465;DHT22;35358;49.342;8.802;2022-10-30T01:39:34;12.70;99.90
49465;DHT22;35358;49.342;8.802;2022-10-30T01:42:54;12.70;99.90
49465;DHT22;35358;49.342;8.802;2022-10-30T01:44:53;12.60;99.90
49465;DHT22;35358;49.342;8.802;2022-10-30T02:01:27;12.30;99.90
49465;DHT22;35358;49.342;8.802;2022-10-30T02:03:53;12.40;99.90
49465;DHT22;35358;49.342;8.802;2022-10-30T02:06:19;12.40;99.90
49465;DHT22;35358;49.342;8.802;2022-10-30T02:08:47;12.30;99.90
49465;DHT22;35358;49.342;8.802;2022-10-30T02:11:13;12.30;99.90
49465;DHT22;35358;49.342;8.802;2022-10-30T02:13:40;12.30;99.90
49465;DHT22;35358;49.342;8.802;2022-10-30T02:16:08;12.30;99.90
49465;DHT22;35358;49.342;8.802;2022-10-30T02:18:36;12.20;99.90
49465;DHT22;35358;49.342;8.802;2022-10-30T02:21:02;12.20;99.90
49465;DHT22;35358;49.342;8.802;2022-10-30T02:23:30;12.20;99.90
49465;DHT22;35358;49.342;8.802;2022-10-30T02:25:57;12.20;99.90
49465;DHT22;35358;49.342;8.802;2022-10-30T02:28:22;12.10;99.90
49465;DHT22;35358;49.342;8.802;2022-10-30T02:30:50;12.10;99.90
49465;DHT22;35358;49.342;8.802;2022-10-30T02:33:16;12.10;99.90
49465;DHT22;35358;49.342;8.802;2022-10-30T02:35:41;12.20;99.90
49465;DHT22;35358;49.342;8.802;2022-10-30T02:38:09;12.00;99.90
49465;DHT22;35358;49.342;8.802;2022-10-30T02:40:35;12.00;99.90
49465;DHT22;35358;49.342;8.802;2022-10-30T02:43:00;12.00;99.90
49465;DHT22;35358;49.342;8.802;2022-10-30T02:45:28;12.00;99.90
49465;DHT22;35358;49.342;8.802;2022-10-30T02:48:00;12.10;99.90
49465;DHT22;35358;49.342;8.802;2022-10-30T02:50:25;12.10;99.90
49465;DHT22;35358;49.342;8.802;2022-10-30T02:52:51;12.00;99.90
49465;DHT22;35358;49.342;8.802;2022-10-30T02:55:17;12.00;99.90
49465;DHT22;35358;49.342;8.802;2022-10-30T02:57:43;11.90;99.90
49465;DHT22;35358;49.342;8.802;2022-10-30T03:00:09;12.00;99.90
49465;DHT22;35358;49.342;8.802;2022-10-30T03:02:35;12.00;99.90
49465;DHT22;35358;49.342;8.802;2022-10-30T03:05:08;12.00;99.90
49465;DHT22;35358;49.342;8.802;2022-10-30T03:07:33;11.90;99.90
49465;DHT22;35358;49.342;8.802;2022-10-30T03:10:01;11.90;99.90
49465;DHT22;35358;49.342;8.802;2022-10-30T03:12:29;11.90;99.90
49465;DHT22;35358;49.342;8.802;2022-10-30T03:14:54;11.90;99.90
49465;DHT22;35358;49.342;8.802;2022-10-30T03:17:20;11.80;99.90
49465;DHT22;35358;49.342;8.802;2022-10-30T03:19:48;11.70;99.90
49465;DHT22;35358;49.342;8.802;2022-10-30T03:22:14;11.70;99.90
49465;DHT22;35358;49.342;8.802;2022-10-30T03:24:39;11.70;99.90
49465;DHT22;35358;49.342;8.802;2022-10-30T03:27:07;11.60;99.90
49465;DHT22;35358;49.342;8.802;2022-10-30T03:29:33;11.60;99.90
49465;DHT22;35358;49.342;8.802;2022-10-30T03:31:58;11.70;99.90
49465;DHT22;35358;49.342;8.802;2022-10-30T03:34:24;11.70;99.90
49465;DHT22;35358;49.342;8.802;2022-10-30T03:36:51;11.70;99.90
49465;DHT22;35358;49.342;8.802;2022-10-30T03:39:19;11.70;99.90
49465;DHT22;35358;49.342;8.802;2022-10-30T03:41:44;11.70;99.90
49465;DHT22;35358;49.342;8.802;2022-10-30T03:44:12;11.70;99.90
49465;DHT22;35358;49.342;8.802;2022-10-30T03:46:38;11.70;99.90
49465;DHT22;35358;49.342;8.802;2022-10-30T03:49:03;11.60;99.90
49465;DHT22;35358;49.342;8.802;2022-10-30T03:51:29;11.60;99.90
49465;DHT22;35358;49.342;8.802;2022-10-30T03:53:54;11.50;99.90
49465;DHT22;35358;49.342;8.802;2022-10-30T03:56:20;11.50;99.90
49465;DHT22;35358;49.342;8.802;2022-10-30T03:58:45;11.50;99.90
49465;DHT22;35358;49.342;8.802;2022-10-30T04:01:11;11.50;99.90
49465;DHT22;35358;49.342;8.802;2022-10-30T04:03:37;11.40;99.90
49465;DHT22;35358;49.342;8.802;2022-10-30T04:06:02;11.40;99.90
49465;DHT22;35358;49.342;8.802;2022-10-30T04:08:28;11.40;99.90
49465;DHT22;35358;49.342;8.802;2022-10-30T04:10:58;11.40;99.90
49465;DHT22;35358;49.342;8.802;2022-10-30T04:13:26;11.40;99.90
49465;DHT22;35358;49.342;8.802;2022-10-30T04:15:56;11.40;99.90
49465;DHT22;35358;49.342;8.802;2022-10-30T04:18:22;11.30;99.90
49465;DHT22;35358;49.342;8.802;2022-10-30T04:20:50;11.20;99.90
49465;DHT22;35358;49.342;8.802;2022-10-30T04:23:21;11.30;99.90
49465;DHT22;35358;49.342;8.802;2022-10-30T04:25:47;11.20;99.90
49465;DHT22;35358;49.342;8.802;2022-10-30T04:28:13;11.20;99.90
49465;DHT22;35358;49.342;8.802;2022-10-30T04:30:41;11.20;99.90
49465;DHT22;35358;49.342;8.802;2022-10-30T04:33:11;11.20;99.90
49465;DHT22;35358;49.342;8.802;2022-10-30T04:35:37;11.10;99.90
49465;DHT22;35358;49.342;8.802;2022-10-30T04:38:08;11.10;99.90
49465;DHT22;35358;49.342;8.802;2022-10-30T04:40:39;11.00;99.90
49465;DHT22;35358;49.342;8.802;2022-10-30T04:43:08;11.00;99.90
49465;DHT22;35358;49.342;8.802;2022-10-30T04:45:36;11.00;99.90
49465;DHT22;35358;49.342;8.802;2022-10-30T04:48:09;11.10;99.90
49465;DHT22;35358;49.342;8.802;2022-10-30T04:50:35;10.90;99.90
49465;DHT22;35358;49.342;8.802;2022-10-30T04:53:02;11.00;99.90
49465;DHT22;35358;49.342;8.802;2022-10-30T04:55:31;11.00;99.90
49465;DHT22;35358;49.342;8.802;2022-10-30T04:58:00;11.00;99.90
49465;DHT22;35358;49.342;8.802;2022-10-30T05:00:29;10.90;99.90
49465;DHT22;35358;49.342;8.802;2022-10-30T05:02:59;10.90;99.90
49465;DHT22;35358;49.342;8.802;2022-10-30T05:05:25;10.80;99.90
49465;DHT22;35358;49.342;8.802;2022-10-30T05:07:53;10.80;99.90
49465;DHT22;35358;49.342;8.802;2022-10-30T05:10:18;10.90;99.90
49465;DHT22;35358;49.342;8.802;2022-10-30T05:12:50;10.80;99.90
49465;DHT22;35358;49.342;8.802;2022-10-30T05:15:15;10.80;99.90
49465;DHT22;35358;49.342;8.802;2022-10-30T05:17:42;10.70;99.90
49465;DHT22;35358;49.342;8.802;2022-10-30T05:20:10;10.70;99.90
49465;DHT22;35358;49.342;8.802;2022-10-30T05:22:38;10.70;99.90
49465;DHT22;35358;49.342;8.802;2022-10-30T05:25:06;10.80;99.90
49465;DHT22;35358;49.342;8.802;2022-10-30T05:27:34;10.70;99.90
49465;DHT22;35358;49.342;8.802;2022-10-30T05:29:59;10.60;99.90
49465;DHT22;35358;49.342;8.802;2022-10-30T05:32:27;10.60;99.90
49465;DHT22;35358;49.342;8.802;2022-10-30T05:34:53;10.60;99.90
49465;DHT22;35358;49.342;8.802;2022-10-30T05:37:19;10.70;99.90
49465;DHT22;35358;49.342;8.802;2022-10-30T05:39:47;10.70;99.90
49465;DHT22;35358;49.342;8.802;2022-10-30T05:42:15;10.60;99.90
49465;DHT22;35358;49.342;8.802;2022-10-30T05:44:40;10.70;99.90
49465;DHT22;35358;49.342;8.802;2022-10-30T05:47:10;10.60;99.90
49465;DHT22;35358;49.342;8.802;2022-10-30T05:49:35;10.60;99.90
49465;DHT22;35358;49.342;8.802;2022-10-30T05:52:01;10.60;99.90
49465;DHT22;35358;49.342;8.802;2022-10-30T05:54:26;10.60;99.90
49465;DHT22;35358;49.342;8.802;2022-10-30T05:56:52;10.60;99.90
49465;DHT22;35358;49.342;8.802;2022-10-30T05:59:18;10.40;99.90
49465;DHT22;35358;49.342;8.802;2022-10-30T06:01:43;10.40;99.90
49465;DHT22;35358;49.342;8.802;2022-10-30T06:04:09;10.40;99.90
49465;DHT22;35358;49.342;8.802;2022-10-30T06:06:39;10.40;99.90
49465;DHT22;35358;49.342;8.802;2022-10-30T06:09:04;10.40;99.90
49465;DHT22;35358;49.342;8.802;2022-10-30T06:11:30;10.40;99.90
49465;DHT22;35358;49.342;8.802;2022-10-30T06:13:55;10.30;99.90
49465;DHT22;35358;49.342;8.802;2022-10-30T06:16:21;10.30;99.90
49465;DHT22;35358;49.342;8.802;2022-10-30T06:18:47;10.30;99.90
49465;DHT22;35358;49.342;8.802;2022-10-30T06:21:12;10.40;99.90
49465;DHT22;35358;49.342;8.802;2022-10-30T06:23:40;10.30;99.90
49465;DHT22;35358;49.342;8.802;2022-10-30T06:26:05;10.30;99.90
49465;DHT22;35358;49.342;8.802;2022-10-30T06:28:31;10.30;99.90
49465;DHT22;35358;49.342;8.802;2022-10-30T06:30:59;10.30;99.90
49465;DHT22;35358;49.342;8.802;2022-10-30T06:33:30;10.40;99.90
49465;DHT22;35358;49.342;8.802;2022-10-30T06:35:55;10.40;99.90
49465;DHT22;35358;49.342;8.802;2022-10-30T06:38:21;10.30;99.90
49465;DHT22;35358;49.342;8.802;2022-10-30T06:40:47;10.30;99.90
49465;DHT22;35358;49.342;8.802;2022-10-30T06:43:15;10.40;99.90
49465;DHT22;35358;49.342;8.802;2022-10-30T06:45:43;10.50;99.90
49465;DHT22;35358;49.342;8.802;2022-10-30T06:48:09;10.50;99.90
49465;DHT22;35358;49.342;8.802;2022-10-30T06:50:34;10.40;99.90
49465;DHT22;35358;49.342;8.802;2022-10-30T06:53:00;10.40;99.90
49465;DHT22;35358;49.342;8.802;2022-10-30T06:55:27;10.30;99.90
49465;DHT22;35358;49.342;8.802;2022-10-30T06:57:56;10.40;99.90
49465;DHT22;35358;49.342;8.802;2022-10-30T07:00:22;10.40;99.90
49465;DHT22;35358;49.342;8.802;2022-10-30T07:02:58;10.40;99.90
49465;DHT22;35358;49.342;8.802;2022-10-30T07:05:24;10.50;99.90
49465;DHT22;35358;49.342;8.802;2022-10-30T07:07:49;10.40;99.90
49465;DHT22;35358;49.342;8.802;2022-10-30T07:10:18;10.50;99.90
49465;DHT22;35358;49.342;8.802;2022-10-30T07:12:50;10.50;99.90
49465;DHT22;35358;49.342;8.802;2022-10-30T07:15:19;10.50;99.90
49465;DHT22;35358;49.342;8.802;2022-10-30T07:17:51;10.60;99.90
49465;DHT22;35358;49.342;8.802;2022-10-30T07:20:19;10.50;99.90
49465;DHT22;35358;49.342;8.802;2022-10-30T07:22:45;10.50;99.90
49465;DHT22;35358;49.342;8.802;2022-10-30T07:25:15;10.60;99.90
49465;DHT22;35358;49.342;8.802;2022-10-30T07:27:45;10.60;99.90
49465;DHT22;35358;49.342;8.802;2022-10-30T07:30:13;10.70;99.90
49465;DHT22;35358;49.342;8.802;2022-10-30T07:32:40;10.70;99.90
49465;DHT22;35358;49.342;8.802;2022-10-30T07:35:12;10.80;99.90
49465;DHT22;35358;49.342;8.802;2022-10-30T07:37:39;10.90;99.90
49465;DHT22;35358;49.342;8.802;2022-10-30T07:40:06;10.90;99.90
49465;DHT22;35358;49.342;8.802;2022-10-30T07:42:32;11.00;99.90
49465;DHT22;35358;49.342;8.802;2022-10-30T07:44:58;11.10;99.90
49465;DHT22;35358;49.342;8.802;2022-10-30T07:47:26;11.10;99.90
49465;DHT22;35358;49.342;8.802;2022-10-30T07:49:51;11.20;99.90
49465;DHT22;35358;49.342;8.802;2022-10-30T07:52:21;11.30;99.90
49465;DHT22;35358;49.342;8.802;2022-10-30T07:54:47;11.30;99.90
49465;DHT22;35358;49.342;8.802;2022-10-30T07:57:15;11.30;99.90
49465;DHT22;35358;49.342;8.802;2022-10-30T07:59:40;11.40;99.90
49465;DHT22;35358;49.342;8.802;2022-10-30T08:02:08;11.40;99.90
49465;DHT22;35358;49.342;8.802;2022-10-30T08:04:36;11.50;99.90
49465;DHT22;35358;49.342;8.802;2022-10-30T08:07:02;11.50;99.90
49465;DHT22;35358;49.342;8.802;2022-10-30T08:09:30;11.60;99.90
49465;DHT22;35358;49.342;8.802;2022-10-30T08:11:55;11.60;99.90
49465;DHT22;35358;49.342;8.802;2022-10-30T08:14:24;11.80;99.90
49465;DHT22;35358;49.342;8.802;2022-10-30T08:16:49;11.80;99.90
49465;DHT22;35358;49.342;8.802;2022-10-30T08:19:15;11.80;99.90
49465;DHT22;35358;49.342;8.802;2022-10-30T08:21:41;11.90;99.90
49465;DHT22;35358;49.342;8.802;2022-10-30T08:24:07;12.00;99.90
49465;DHT22;35358;49.342;8.802;2022-10-30T08:26:35;12.00;99.90
49465;DHT22;35358;49.342;8.802;2022-10-30T08:29:03;12.10;99.90
49465;DHT22;35358;49.342;8.802;2022-10-30T08:31:29;12.20;99.90
49465;DHT22;35358;49.342;8.802;2022-10-30T08:33:54;12.20;99.90
49465;DHT22;35358;49.342;8.802;2022-10-30T08:36:20;12.30;99.90
49465;DHT22;35358;49.342;8.802;2022-10-30T08:38:46;12.40;99.90
49465;DHT22;35358;49.342;8.802;2022-10-30T08:41:11;12.40;99.90
49465;DHT22;35358;49.342;8.802;2022-10-30T08:43:37;12.40;99.90
49465;DHT22;35358;49.342;8.802;2022-10-30T08:46:03;12.50;99.90
49465;DHT22;35358;49.342;8.802;2022-10-30T08:48:28;12.50;99.90
49465;DHT22;35358;49.342;8.802;2022-10-30T08:50:57;12.60;99.90
49465;DHT22;35358;49.342;8.802;2022-10-30T08:53:25;12.60;99.90
49465;DHT22;35358;49.342;8.802;2022-10-30T08:55:53;12.80;99.90
49465;DHT22;35358;49.342;8.802;2022-10-30T08:58:18;13.00;99.90
49465;DHT22;35358;49.342;8.802;2022-10-30T09:00:44;13.10;99.90
49465;DHT22;35358;49.342;8.802;2022-10-30T09:03:12;13.20;99.90
49465;DHT22;35358;49.342;8.802;2022-10-30T09:05:38;13.30;99.90
49465;DHT22;35358;49.342;8.802;2022-10-30T09:08:04;13.30;99.90
49465;DHT22;35358;49.342;8.802;2022-10-30T09:10:32;13.40;99.90
49465;DHT22;35358;49.342;8.802;2022-10-30T09:13:00;13.60;99.90
49465;DHT22;35358;49.342;8.802;2022-10-30T09:15:29;13.70;99.90
49465;DHT22;35358;49.342;8.802;2022-10-30T09:20:21;14.00;99.90
49465;DHT22;35358;49.342;8.802;2022-10-30T09:22:49;14.20;99.90
49465;DHT22;35358;49.342;8.802;2022-10-30T09:25:15;14.40;99.90
49465;DHT22;35358;49.342;8.802;2022-10-30T09:27:43;14.50;99.90
49465;DHT22;35358;49.342;8.802;2022-10-30T09:30:09;14.60;99.90
49465;DHT22;35358;49.342;8.802;2022-10-30T09:32:34;14.60;99.90
49465;DHT22;35358;49.342;8.802;2022-10-30T09:35:02;14.60;99.90
49465;DHT22;35358;49.342;8.802;2022-10-30T09:37:37;14.70;99.90
49465;DHT22;35358;49.342;8.802;2022-10-30T09:40:04;14.80;99.90
49465;DHT22;35358;49.342;8.802;2022-10-30T09:42:44;14.80;99.90
49465;DHT22;35358;49.342;8.802;2022-10-30T09:45:25;14.90;99.90
49465;DHT22;35358;49.342;8.802;2022-10-30T09:48:19;15.00;99.90
49465;DHT22;35358;49.342;8.802;2022-10-30T09:51:07;15.10;99.90
49465;DHT22;35358;49.342;8.802;2022-10-30T09:53:43;15.10;99.90
49465;DHT22;35358;49.342;8.802;2022-10-30T09:56:30;15.20;99.90
49465;DHT22;35358;49.342;8.802;2022-10-30T10:01:52;15.30;99.90
49465;DHT22;35358;49.342;8.802;2022-10-30T10:04:32;15.30;99.90
49465;DHT22;35358;49.342;8.802;2022-10-30T10:07:03;15.50;99.90
49465;DHT22;35358;49.342;8.802;2022-10-30T10:09:33;15.60;99.90
49465;DHT22;35358;49.342;8.802;2022-10-30T10:12:11;15.70;99.90
49465;DHT22;35358;49.342;8.802;2022-10-30T10:14:42;15.80;99.90
49465;DHT22;35358;49.342;8.802;2022-10-30T10:17:33;16.00;99.90
49465;DHT22;35358;49.342;8.802;2022-10-30T10:20:01;16.10;99.90
49465;DHT22;35358;49.342;8.802;2022-10-30T10:25:17;16.30;99.90
49465;DHT22;35358;49.342;8.802;2022-10-30T10:33:32;16.70;99.90
49465;DHT22;35358;49.342;8.802;2022-10-30T10:38:55;16.80;99.90
49465;DHT22;35358;49.342;8.802;2022-10-30T10:53:06;17.20;99.90
49465;DHT22;35358;49.342;8.802;2022-10-30T10:55:39;17.40;99.90
49465;DHT22;35358;49.342;8.802;2022-10-30T10:58:38;17.40;99.90
49465;DHT22;35358;49.342;8.802;2022-10-30T11:01:16;17.60;99.90
49465;DHT22;35358;49.342;8.802;2022-10-30T11:04:19;17.70;99.90
49465;DHT22;35358;49.342;8.802;2022-10-30T11:06:52;17.80;99.90
49465;DHT22;35358;49.342;8.802;2022-10-30T11:09:21;17.80;99.90
49465;DHT22;35358;49.342;8.802;2022-10-30T11:11:51;17.90;99.90
49465;DHT22;35358;49.342;8.802;2022-10-30T11:14:18;17.90;99.90
49465;DHT22;35358;49.342;8.802;2022-10-30T11:17:03;18.00;99.90
49465;DHT22;35358;49.342;8.802;2022-10-30T11:19:30;18.00;99.90
49465;DHT22;35358;49.342;8.802;2022-10-30T11:21:56;18.10;99.90
49465;DHT22;35358;49.342;8.802;2022-10-30T11:24:29;18.20;99.90
49465;DHT22;35358;49.342;8.802;2022-10-30T11:27:16;18.20;99.90
49465;DHT22;35358;49.342;8.802;2022-10-30T11:29:50;18.30;99.90
49465;DHT22;35358;49.342;8.802;2022-10-30T11:32:19;18.30;99.90
49465;DHT22;35358;49.342;8.802;2022-10-30T11:35:15;18.40;99.90
49465;DHT22;35358;49.342;8.802;2022-10-30T11:37:45;18.40;99.90
49465;DHT22;35358;49.342;8.802;2022-10-30T11:43:14;18.60;99.90
49465;DHT22;35358;49.342;8.802;2022-10-30T11:45:39;18.70;99.90
49465;DHT22;35358;49.342;8.802;2022-10-30T11:48:30;18.70;99.90
49465;DHT22;35358;49.342;8.802;2022-10-30T11:50:59;18.80;99.90
49465;DHT22;35358;49.342;8.802;2022-10-30T11:53:36;19.00;99.90
49465;DHT22;35358;49.342;8.802;2022-10-30T11:56:19;19.10;99.90
49465;DHT22;35358;49.342;8.802;2022-10-30T11:58:53;19.10;99.90
49465;DHT22;35358;49.342;8.802;2022-10-30T12:01:25;19.20;99.90
49465;DHT22;35358;49.342;8.802;2022-10-30T12:03:53;19.20;99.90
49465;DHT22;35358;49.342;8.802;2022-10-30T12:11:29;19.30;99.90
49465;DHT22;35358;49.342;8.802;2022-10-30T12:13:59;19.40;99.90
49465;DHT22;35358;49.342;8.802;2022-10-30T12:16:25;19.40;99.90
49465;DHT22;35358;49.342;8.802;2022-10-30T12:19:04;19.60;99.90
49465;DHT22;35358;49.342;8.802;2022-10-30T12:21:36;19.70;99.90
49465;DHT22;35358;49.342;8.802;2022-10-30T12:24:11;19.80;99.90
49465;DHT22;35358;49.342;8.802;2022-10-30T12:26:37;19.80;99.90
49465;DHT22;35358;49.342;8.802;2022-10-30T12:29:14;19.70;99.90
49465;DHT22;35358;49.342;8.802;2022-10-30T12:31:59;19.70;99.90
49465;DHT22;35358;49.342;8.802;2022-10-30T12:37:30;19.70;99.90
49465;DHT22;35358;49.342;8.802;2022-10-30T12:43:16;19.80;99.90
49465;DHT22;35358;49.342;8.802;2022-10-30T12:45:47;20.00;99.90
49465;DHT22;35358;49.342;8.802;2022-10-30T12:48:33;20.20;99.90
49465;DHT22;35358;49.342;8.802;2022-10-30T12:51:19;20.30;99.90
49465;DHT22;35358;49.342;8.802;2022-10-30T12:56:31;20.20;99.90
49465;DHT22;35358;49.342;8.802;2022-10-30T12:59:21;20.10;99.90
49465;DHT22;35358;49.342;8.802;2022-10-30T13:04:42;20.20;99.90
49465;DHT22;35358;49.342;8.802;2022-10-30T13:09:47;20.40;99.90
49465;DHT22;35358;49.342;8.802;2022-10-30T13:12:20;20.50;99.90
49465;DHT22;35358;49.342;8.802;2022-10-30T13:14:53;20.60;99.90
49465;DHT22;35358;49.342;8.802;2022-10-30T13:17:20;20.60;99.90
49465;DHT22;35358;49.342;8.802;2022-10-30T13:19:48;20.60;99.90
49465;DHT22;35358;49.342;8.802;2022-10-30T13:22:29;20.50;99.90
49465;DHT22;35358;49.342;8.802;2022-10-30T13:25:04;20.60;99.90
49465;DHT22;35358;49.342;8.802;2022-10-30T13:40:41;20.70;99.90
49465;DHT22;35358;49.342;8.802;2022-10-30T13:49:08;20.60;99.90
49465;DHT22;35358;49.342;8.802;2022-10-30T13:56:40;20.60;99.90
49465;DHT22;35358;49.342;8.802;2022-10-30T13:59:28;20.60;99.90
49465;DHT22;35358;49.342;8.802;2022-10-30T14:02:24;20.60;99.90
49465;DHT22;35358;49.342;8.802;2022-10-30T14:05:11;20.60;99.90
49465;DHT22;35358;49.342;8.802;2022-10-30T14:07:54;20.70;99.90
49465;DHT22;35358;49.342;8.802;2022-10-30T14:10:25;20.80;99.90
49465;DHT22;35358;49.342;8.802;2022-10-30T14:23:35;21.10;99.90
49465;DHT22;35358;49.342;8.802;2022-10-30T14:28:34;21.40;99.90
49465;DHT22;35358;49.342;8.802;2022-10-30T14:33:53;21.20;99.90
49465;DHT22;35358;49.342;8.802;2022-10-30T14:36:58;21.10;99.90
49465;DHT22;35358;49.342;8.802;2022-10-30T14:42:18;20.80;99.90
49465;DHT22;35358;49.342;8.802;2022-10-30T14:45:12;20.60;99.90
49465;DHT22;35358;49.342;8.802;2022-10-30T14:50:21;20.20;99.90
49465;DHT22;35358;49.342;8.802;2022-10-30T14:56:10;20.20;99.90
49465;DHT22;35358;49.342;8.802;2022-10-30T15:07:32;19.80;99.90
49465;DHT22;35358;49.342;8.802;2022-10-30T15:15:40;19.50;99.90
49465;DHT22;35358;49.342;8.802;2022-10-30T15:18:15;19.40;99.90
49465;DHT22;35358;49.342;8.802;2022-10-30T15:20:41;19.20;99.90
49465;DHT22;35358;49.342;8.802;2022-10-30T15:23:27;19.10;99.90
49465;DHT22;35358;49.342;8.802;2022-10-30T15:25:58;19.00;99.90
49465;DHT22;35358;49.342;8.802;2022-10-30T15:28:31;19.00;99.90
49465;DHT22;35358;49.342;8.802;2022-10-30T15:31:19;19.10;99.90
49465;DHT22;35358;49.342;8.802;2022-10-30T15:33:47;19.10;99.90
49465;DHT22;35358;49.342;8.802;2022-10-30T15:36:17;19.00;99.90
49465;DHT22;35358;49.342;8.802;2022-10-30T15:38:43;18.80;99.90
49465;DHT22;35358;49.342;8.802;2022-10-30T15:41:11;18.70;99.90
49465;DHT22;35358;49.342;8.802;2022-10-30T15:43:39;18.60;99.90
49465;DHT22;35358;49.342;8.802;2022-10-30T15:46:10;18.50;99.90
49465;DHT22;35358;49.342;8.802;2022-10-30T15:48:40;18.40;99.90
49465;DHT22;35358;49.342;8.802;2022-10-30T15:51:16;18.20;99.90
49465;DHT22;35358;49.342;8.802;2022-10-30T15:53:57;18.00;99.90
49465;DHT22;35358;49.342;8.802;2022-10-30T15:56:42;17.90;99.90
49465;DHT22;35358;49.342;8.802;2022-10-30T15:59:18;17.80;99.90
49465;DHT22;35358;49.342;8.802;2022-10-30T16:01:46;17.80;99.90
49465;DHT22;35358;49.342;8.802;2022-10-30T16:04:18;17.70;99.90
49465;DHT22;35358;49.342;8.802;2022-10-30T16:06:49;17.60;99.90
49465;DHT22;35358;49.342;8.802;2022-10-30T16:09:15;17.40;99.90
49465;DHT22;35358;49.342;8.802;2022-10-30T16:11:43;17.40;99.90
49465;DHT22;35358;49.342;8.802;2022-10-30T16:14:13;17.30;99.90
49465;DHT22;35358;49.342;8.802;2022-10-30T16:16:40;17.20;99.90
49465;DHT22;35358;49.342;8.802;2022-10-30T16:19:14;17.10;99.90
49465;DHT22;35358;49.342;8.802;2022-10-30T16:21:45;17.00;99.90
49465;DHT22;35358;49.342;8.802;2022-10-30T16:24:15;16.90;99.90
49465;DHT22;35358;49.342;8.802;2022-10-30T16:26:42;16.80;99.90
49465;DHT22;35358;49.342;8.802;2022-10-30T16:29:17;16.70;99.90
49465;DHT22;35358;49.342;8.802;2022-10-30T16:31:47;16.50;99.90
49465;DHT22;35358;49.342;8.802;2022-10-30T16:34:32;16.40;99.90
49465;DHT22;35358;49.342;8.802;2022-10-30T16:37:03;16.30;99.90
49465;DHT22;35358;49.342;8.802;2022-10-30T16:39:30;16.20;99.90
49465;DHT22;35358;49.342;8.802;2022-10-30T16:41:59;16.20;99.90
49465;DHT22;35358;49.342;8.802;2022-10-30T16:47:05;16.10;99.90
49465;DHT22;35358;49.342;8.802;2022-10-30T16:49:35;16.00;99.90
49465;DHT22;35358;49.342;8.802;2022-10-30T16:52:12;16.00;99.90
49465;DHT22;35358;49.342;8.802;2022-10-30T16:55:00;16.00;99.90
49465;DHT22;35358;49.342;8.802;2022-10-30T16:57:30;16.00;99.90
49465;DHT22;35358;49.342;8.802;2022-10-30T16:59:58;15.80;99.90
49465;DHT22;35358;49.342;8.802;2022-10-30T17:02:30;15.80;99.90
49465;DHT22;35358;49.342;8.802;2022-10-30T17:07:57;15.80;99.90
49465;DHT22;35358;49.342;8.802;2022-10-30T17:10:35;15.80;99.90
49465;DHT22;35358;49.342;8.802;2022-10-30T17:15:54;15.70;99.90
49465;DHT22;35358;49.342;8.802;2022-10-30T17:18:29;15.70;99.90
49465;DHT22;35358;49.342;8.802;2022-10-30T17:21:10;15.50;99.90
49465;DHT22;35358;49.342;8.802;2022-10-30T17:23:56;15.50;99.90
49465;DHT22;35358;49.342;8.802;2022-10-30T17:26:26;15.50;99.90
49465;DHT22;35358;49.342;8.802;2022-10-30T17:28:52;15.40;99.90
49465;DHT22;35358;49.342;8.802;2022-10-30T17:31:26;15.40;99.90
49465;DHT22;35358;49.342;8.802;2022-10-30T17:36:45;15.20;99.90
49465;DHT22;35358;49.342;8.802;2022-10-30T17:39:11;15.20;99.90
49465;DHT22;35358;49.342;8.802;2022-10-30T17:41:37;15.20;99.90
49465;DHT22;35358;49.342;8.802;2022-10-30T17:44:05;15.30;99.90
49465;DHT22;35358;49.342;8.802;2022-10-30T17:46:33;15.30;99.90
49465;DHT22;35358;49.342;8.802;2022-10-30T17:48:59;15.10;99.90
49465;DHT22;35358;49.342;8.802;2022-10-30T17:51:27;15.20;99.90
49465;DHT22;35358;49.342;8.802;2022-10-30T17:53:53;15.10;99.90
49465;DHT22;35358;49.342;8.802;2022-10-30T17:56:24;15.10;99.90
49465;DHT22;35358;49.342;8.802;2022-10-30T17:58:53;15.00;99.90
49465;DHT22;35358;49.342;8.802;2022-10-30T18:01:22;14.90;99.90
49465;DHT22;35358;49.342;8.802;2022-10-30T18:03:49;14.80;99.90
49465;DHT22;35358;49.342;8.802;2022-10-30T18:06:26;14.80;99.90
49465;DHT22;35358;49.342;8.802;2022-10-30T18:08:54;14.80;99.90
49465;DHT22;35358;49.342;8.802;2022-10-30T18:11:22;14.70;99.90